MUGM

Details ICAO MUGM
Name Guantanamo Bay Ns
Region Cuba
Timezone Unknown (UTC+0.0)
Plans Departing 24
Arriving 28
Stats Elevation 56 ft / 17 m (AMSL)
Location 19.906458° -75.207055°
Runways 1
Magnetic Variation 8.753° W
Sunrise 2017-12-16 11:29:59 UTC / 2017-12-16 11:29:59 Local
Sunset 2017-12-16 22:25:54 UTC / 2017-12-16 22:25:54 Local
Advertisement - Login to hide

Runways

ID Width Length Bearing (true) Bearing (mag) Surface Threshold Offset Overrun Length
10 200 ft / 61 m 7,988 ft / 2,435 m 91.09° 99.84° Asphalt 100 ft / 30 m 150 ft / 46 m
28 200 ft / 61 m 7,988 ft / 2,435 m 271.10° 279.85° Asphalt 100 ft / 30 m 150 ft / 46 m

Map

Weather


0- 5 10 15 20 25 30 35+ Temperature / ° C

Clouds and Precipitation
Forecast for 2017-12-16 06:00 UTC. Updated 2 hours ago

Ground ~20,000 ft ~40,000 ft Winds

METAR

MUGM 160656Z 34005KT 9999 FEW030 22/22 A3005 RMK SLP177 T02220222

TAF

TAF TAF MUGM 1607/1707 36005KT 9999 FEW025 QNH3000INS BECMG 1615/1617 10016KT 9999 FEW032 SCT280 QNH2998INS BECMG 1700/1702 33010KT 9999 FEW030 SCT280 QNH3002INS T21/1611Z T30/1617Z FN00170

Frequencies

Recorded 136.17 MHz ASOS
Ground 118.45 MHz GND
Unicom 134.10 MHz CTAF
Tower 134.10 MHz LEEWARD TWR
Warning: Do not use this data for real-world aviation or navigation. No guarantee of current accuracy is given.